ADDS METAR Data INFO
IDs: Format: Raw Decoded Include TAF

Data at: 1246 UTC 19 Oct 2017

KIGM 191151Z AUTO 14003KT 10SM CLR 14/00 A2994 RMK AO2 SLP078 T01390000 10156 20111 55009
KIGM 191051Z AUTO 00000KT 10SM CLR 13/M01 A2994 RMK AO2 SLP078 T01331011
KIGM 190951Z AUTO 00000KT 10SM CLR 12/M01 A2996 RMK AO2 SLP086 T01221011
KIGM 190851Z AUTO 20003KT 10SM FEW110 14/M01 A2998 RMK AO2 SLP090 T01391011 56007
KIGM 190751Z AUTO 00000KT 10SM CLR 13/M01 A2998 RMK AO2 SLP091 T01331011
KIGM 190651Z AUTO 00000KT 10SM CLR 13/00 A2999 RMK AO2 SLP095 T01280000 402890106
KIGM 190551Z AUTO 18005KT 10SM CLR 15/01 A3000 RMK AO2 SLP098 T01500006 10278 20150 58006
KIGM 190451Z AUTO 00000KT 10SM SCT100 17/01 A3001 RMK AO2 SLP103 T01720006
KIGM 190351Z AUTO 18005KT 10SM SCT100 18/01 A3001 RMK AO2 SLP107 T01830011
KIGM 190251Z AUTO 16007KT 10SM CLR 19/01 A3002 RMK AO2 SLP111 T01890011 56001
KIGM 190151Z AUTO 13005KT 10SM FEW110 21/01 A3002 RMK AO2 SLP115 T02060006
KIGM 190051Z AUTO 23006KT 10SM CLR 24/01 A3002 RMK AO2 SLP109 T02390006
KIGM 182351Z AUTO 23008KT 10SM SCT110 28/01 A3002 RMK AO2 SLP107 T02780011 10289 20256 56010
KIGM 182251Z AUTO 25006KT 10SM BKN120 28/01 A3003 RMK AO2 SLP105 T02830006
KIGM 182151Z AUTO 24005KT 10SM BKN110 28/M03 A3004 RMK AO2 SLP112 T02781033
KIGM 182051Z AUTO 23008KT 10SM FEW080 OVC110 27/M04 A3005 RMK AO2 SLP114 T02721039 58015
KIGM 181951Z AUTO 24010KT 10SM CLR 28/M03 A3007 RMK AO2 SLP122 T02781028
KIGM 181851Z AUTO VRB03KT 10SM CLR 28/M04 A3010 RMK AO2 SLP129 T02781044
KIGM 181751Z AUTO 25003KT 10SM CLR 26/00 A3010 RMK AO2 SLP127 T02610000 10261 20106 51004
KIGM 181651Z AUTO 19004KT 10SM CLR 22/M02 A3010 RMK AO2 SLP134 T02221017
KIGM 181551Z AUTO 00000KT 10SM CLR 19/M01 A3010 RMK AO2 SLP134 T01941011
KIGM 181451Z AUTO 13004KT 10SM CLR 17/M02 A3009 RMK AO2 SLP134 T01671017 53011
KIGM 181351Z AUTO 22003KT 10SM CLR 11/M04 A3007 RMK AO2 SLP130 T01111044
KIGM 181251Z AUTO 16004KT 10SM CLR 12/M04 A3006 RMK AO2 SLP124 T01221039
KIGM 181151Z AUTO 13005KT 10SM CLR 12/M03 A3005 RMK AO2 SLP116 T01171033 10194 20117 56006
KIGM 181051Z AUTO VRB03KT 10SM CLR 17/M03 A3005 RMK AO2 SLP110 T01671028
KIGM 180951Z AUTO 10003KT 10SM CLR 13/M01 A3007 RMK AO2 SLP118 T01281011
KIGM 180851Z AUTO 20003KT 10SM CLR 16/M02 A3007 RMK AO2 SLP116 T01561017 56006
KIGM 180751Z AUTO 17003KT 10SM CLR 15/M02 A3007 RMK AO2 SLP117 T01501017
KIGM 180651Z AUTO 13005KT 10SM CLR 15/00 A3008 RMK AO2 SLP123 T01500000 403170078
KIGM 180551Z AUTO 00000KT 10SM CLR 20/M01 A3009 RMK AO2 SLP124 T02001006 10294 20161 50002
KIGM 180451Z AUTO 08003KT 10SM CLR 17/M01 A3009 RMK AO2 SLP131 T01721011
KIGM 180351Z AUTO 00000KT 10SM CLR 21/M02 A3008 RMK AO2 SLP126 T02111017
KIGM 180251Z AUTO 21006KT 10SM CLR 20/M03 A3008 RMK AO2 SLP134 T02001028 52004
KIGM 180151Z AUTO 21010KT 10SM CLR 23/M03 A3009 RMK AO2 SLP138 T02331028
KIGM 180051Z AUTO 22009KT 10SM CLR 27/M02 A3007 RMK AO2 SLP129 T02671022